sensor_id;sensor_type;location;lat;lon;timestamp;temperature;humidity
3648;DHT22;1840;48.892;15.312;2023-01-09T00:01:13;0.20;99.90
3648;DHT22;1840;48.892;15.312;2023-01-09T00:03:41;0.00;99.90
3648;DHT22;1840;48.892;15.312;2023-01-09T00:06:10;-0.10;99.90
3648;DHT22;1840;48.892;15.312;2023-01-09T00:08:38;0.10;99.90
3648;DHT22;1840;48.892;15.312;2023-01-09T00:11:06;0.30;99.90
3648;DHT22;1840;48.892;15.312;2023-01-09T00:13:34;0.30;99.90
3648;DHT22;1840;48.892;15.312;2023-01-09T00:16:04;0.10;99.90
3648;DHT22;1840;48.892;15.312;2023-01-09T00:18:33;0.10;99.90
3648;DHT22;1840;48.892;15.312;2023-01-09T00:21:02;0.10;99.90
3648;DHT22;1840;48.892;15.312;2023-01-09T00:23:31;0.10;99.90
3648;DHT22;1840;48.892;15.312;2023-01-09T00:26:04;0.10;99.90
3648;DHT22;1840;48.892;15.312;2023-01-09T00:28:33;0.10;99.90
3648;DHT22;1840;48.892;15.312;2023-01-09T00:31:04;0.10;99.90
3648;DHT22;1840;48.892;15.312;2023-01-09T00:33:34;0.10;99.90
3648;DHT22;1840;48.892;15.312;2023-01-09T00:36:03;0.00;99.90
3648;DHT22;1840;48.892;15.312;2023-01-09T00:38:31;0.00;99.90
3648;DHT22;1840;48.892;15.312;2023-01-09T00:40:59;0.10;99.90
3648;DHT22;1840;48.892;15.312;2023-01-09T00:43:32;0.10;99.90
3648;DHT22;1840;48.892;15.312;2023-01-09T00:46:06;-0.10;99.90
3648;DHT22;1840;48.892;15.312;2023-01-09T00:48:36;0.10;99.90
3648;DHT22;1840;48.892;15.312;2023-01-09T00:51:05;0.10;99.90
3648;DHT22;1840;48.892;15.312;2023-01-09T00:53:36;-0.10;99.90
3648;DHT22;1840;48.892;15.312;2023-01-09T00:56:09;-0.10;99.90
3648;DHT22;1840;48.892;15.312;2023-01-09T00:58:37;-0.20;99.90
3648;DHT22;1840;48.892;15.312;2023-01-09T01:01:07;-0.10;99.90
3648;DHT22;1840;48.892;15.312;2023-01-09T01:03:35;-0.10;99.90
3648;DHT22;1840;48.892;15.312;2023-01-09T01:06:03;-0.10;99.90
3648;DHT22;1840;48.892;15.312;2023-01-09T01:08:49;-0.20;99.90
3648;DHT22;1840;48.892;15.312;2023-01-09T01:11:17;0.10;99.90
3648;DHT22;1840;48.892;15.312;2023-01-09T01:13:45;0.20;99.90
3648;DHT22;1840;48.892;15.312;2023-01-09T01:16:15;0.30;99.90
3648;DHT22;1840;48.892;15.312;2023-01-09T01:18:44;0.40;99.90
3648;DHT22;1840;48.892;15.312;2023-01-09T01:21:13;0.20;99.90
3648;DHT22;1840;48.892;15.312;2023-01-09T01:23:41;0.40;99.90
3648;DHT22;1840;48.892;15.312;2023-01-09T01:26:11;0.30;99.90
3648;DHT22;1840;48.892;15.312;2023-01-09T01:28:40;0.30;99.90
3648;DHT22;1840;48.892;15.312;2023-01-09T01:31:16;0.30;99.90
3648;DHT22;1840;48.892;15.312;2023-01-09T01:33:45;0.50;99.90
3648;DHT22;1840;48.892;15.312;2023-01-09T01:36:13;0.60;99.90
3648;DHT22;1840;48.892;15.312;2023-01-09T01:38:43;0.70;99.90
3648;DHT22;1840;48.892;15.312;2023-01-09T01:41:12;0.80;99.90
3648;DHT22;1840;48.892;15.312;2023-01-09T01:43:51;0.90;99.90
3648;DHT22;1840;48.892;15.312;2023-01-09T01:46:20;0.90;99.90
3648;DHT22;1840;48.892;15.312;2023-01-09T01:48:51;1.00;99.90
3648;DHT22;1840;48.892;15.312;2023-01-09T01:51:21;1.00;99.90
3648;DHT22;1840;48.892;15.312;2023-01-09T01:53:52;1.00;99.90
3648;DHT22;1840;48.892;15.312;2023-01-09T01:56:23;1.00;99.90
3648;DHT22;1840;48.892;15.312;2023-01-09T01:58:56;1.10;99.90
3648;DHT22;1840;48.892;15.312;2023-01-09T02:01:27;1.00;99.90
3648;DHT22;1840;48.892;15.312;2023-01-09T02:03:56;1.10;99.90
3648;DHT22;1840;48.892;15.312;2023-01-09T02:06:26;1.20;99.90
3648;DHT22;1840;48.892;15.312;2023-01-09T02:08:54;1.30;99.90
3648;DHT22;1840;48.892;15.312;2023-01-09T02:11:22;1.10;99.90
3648;DHT22;1840;48.892;15.312;2023-01-09T02:13:51;1.20;99.90
3648;DHT22;1840;48.892;15.312;2023-01-09T02:16:35;1.20;99.90
3648;DHT22;1840;48.892;15.312;2023-01-09T02:19:19;1.10;99.90
3648;DHT22;1840;48.892;15.312;2023-01-09T02:22:04;1.20;99.90
3648;DHT22;1840;48.892;15.312;2023-01-09T02:27:53;1.20;99.90
3648;DHT22;1840;48.892;15.312;2023-01-09T02:30:31;1.10;99.90
3648;DHT22;1840;48.892;15.312;2023-01-09T02:33:12;1.10;99.90
3648;DHT22;1840;48.892;15.312;2023-01-09T02:35:57;1.20;99.90
3648;DHT22;1840;48.892;15.312;2023-01-09T02:38:33;1.20;99.90
3648;DHT22;1840;48.892;15.312;2023-01-09T02:41:07;1.10;99.90
3648;DHT22;1840;48.892;15.312;2023-01-09T02:43:38;1.10;99.90
3648;DHT22;1840;48.892;15.312;2023-01-09T02:46:17;1.00;99.90
3648;DHT22;1840;48.892;15.312;2023-01-09T02:48:49;1.00;99.90
3648;DHT22;1840;48.892;15.312;2023-01-09T02:51:23;0.90;99.90
3648;DHT22;1840;48.892;15.312;2023-01-09T02:54:03;1.00;99.90
3648;DHT22;1840;48.892;15.312;2023-01-09T02:56:46;1.00;99.90
3648;DHT22;1840;48.892;15.312;2023-01-09T02:59:25;1.00;99.90
3648;DHT22;1840;48.892;15.312;2023-01-09T03:02:07;1.10;99.90
3648;DHT22;1840;48.892;15.312;2023-01-09T03:04:43;1.20;99.90
3648;DHT22;1840;48.892;15.312;2023-01-09T03:07:17;1.10;99.90
3648;DHT22;1840;48.892;15.312;2023-01-09T03:09:51;1.10;99.90
3648;DHT22;1840;48.892;15.312;2023-01-09T03:12:26;1.00;99.90
3648;DHT22;1840;48.892;15.312;2023-01-09T03:14:58;1.20;99.90
3648;DHT22;1840;48.892;15.312;2023-01-09T03:17:32;1.30;99.90
3648;DHT22;1840;48.892;15.312;2023-01-09T03:20:05;1.30;99.90
3648;DHT22;1840;48.892;15.312;2023-01-09T03:22:34;1.40;99.90
3648;DHT22;1840;48.892;15.312;2023-01-09T03:25:02;1.30;99.90
3648;DHT22;1840;48.892;15.312;2023-01-09T03:27:30;1.20;99.90
3648;DHT22;1840;48.892;15.312;2023-01-09T03:29:58;1.40;99.90
3648;DHT22;1840;48.892;15.312;2023-01-09T03:32:28;1.40;99.90
3648;DHT22;1840;48.892;15.312;2023-01-09T03:34:56;1.40;99.90
3648;DHT22;1840;48.892;15.312;2023-01-09T03:37:24;1.40;99.90
3648;DHT22;1840;48.892;15.312;2023-01-09T03:39:51;1.40;99.90
3648;DHT22;1840;48.892;15.312;2023-01-09T03:42:19;1.40;99.90
3648;DHT22;1840;48.892;15.312;2023-01-09T03:44:47;1.20;99.90
3648;DHT22;1840;48.892;15.312;2023-01-09T03:47:17;1.20;99.90
3648;DHT22;1840;48.892;15.312;2023-01-09T03:49:46;1.20;99.90
3648;DHT22;1840;48.892;15.312;2023-01-09T03:52:14;1.30;99.90
3648;DHT22;1840;48.892;15.312;2023-01-09T03:54:42;1.30;99.90
3648;DHT22;1840;48.892;15.312;2023-01-09T03:57:10;1.40;99.90
3648;DHT22;1840;48.892;15.312;2023-01-09T03:59:38;1.40;99.90
3648;DHT22;1840;48.892;15.312;2023-01-09T04:02:06;1.40;99.90
3648;DHT22;1840;48.892;15.312;2023-01-09T04:04:34;1.50;99.90
3648;DHT22;1840;48.892;15.312;2023-01-09T04:07:04;1.10;99.90
3648;DHT22;1840;48.892;15.312;2023-01-09T04:09:32;1.20;99.90
3648;DHT22;1840;48.892;15.312;2023-01-09T04:11:59;1.30;99.90
3648;DHT22;1840;48.892;15.312;2023-01-09T04:14:27;1.20;99.90
3648;DHT22;1840;48.892;15.312;2023-01-09T04:16:55;1.10;99.90
3648;DHT22;1840;48.892;15.312;2023-01-09T04:19:23;1.10;99.90
3648;DHT22;1840;48.892;15.312;2023-01-09T04:21:51;1.20;99.90
3648;DHT22;1840;48.892;15.312;2023-01-09T04:24:20;1.30;99.90
3648;DHT22;1840;48.892;15.312;2023-01-09T04:26:48;1.40;99.90
3648;DHT22;1840;48.892;15.312;2023-01-09T04:29:16;1.20;99.90
3648;DHT22;1840;48.892;15.312;2023-01-09T04:31:44;1.20;99.90
3648;DHT22;1840;48.892;15.312;2023-01-09T04:34:12;1.10;99.90
3648;DHT22;1840;48.892;15.312;2023-01-09T04:36:41;1.10;99.90
3648;DHT22;1840;48.892;15.312;2023-01-09T04:39:09;1.10;99.90
3648;DHT22;1840;48.892;15.312;2023-01-09T04:41:38;1.10;99.90
3648;DHT22;1840;48.892;15.312;2023-01-09T04:44:16;1.20;99.90
3648;DHT22;1840;48.892;15.312;2023-01-09T04:46:45;1.20;99.90
3648;DHT22;1840;48.892;15.312;2023-01-09T04:49:13;1.30;99.90
3648;DHT22;1840;48.892;15.312;2023-01-09T04:51:41;1.10;99.90
3648;DHT22;1840;48.892;15.312;2023-01-09T04:54:10;1.40;99.90
3648;DHT22;1840;48.892;15.312;2023-01-09T04:56:39;1.40;99.90
3648;DHT22;1840;48.892;15.312;2023-01-09T04:59:07;1.30;99.90
3648;DHT22;1840;48.892;15.312;2023-01-09T05:01:35;1.30;99.90
3648;DHT22;1840;48.892;15.312;2023-01-09T05:04:04;1.30;99.90
3648;DHT22;1840;48.892;15.312;2023-01-09T05:06:33;1.30;99.90
3648;DHT22;1840;48.892;15.312;2023-01-09T05:09:01;1.40;99.90
3648;DHT22;1840;48.892;15.312;2023-01-09T05:11:29;1.40;99.90
3648;DHT22;1840;48.892;15.312;2023-01-09T05:13:59;1.30;99.90
3648;DHT22;1840;48.892;15.312;2023-01-09T05:16:27;1.10;99.90
3648;DHT22;1840;48.892;15.312;2023-01-09T05:18:57;1.10;99.90
3648;DHT22;1840;48.892;15.312;2023-01-09T05:21:26;1.20;99.90
3648;DHT22;1840;48.892;15.312;2023-01-09T05:23:54;1.10;99.90
3648;DHT22;1840;48.892;15.312;2023-01-09T05:26:22;1.20;99.90
3648;DHT22;1840;48.892;15.312;2023-01-09T05:28:51;1.20;99.90
3648;DHT22;1840;48.892;15.312;2023-01-09T05:31:20;1.20;99.90
3648;DHT22;1840;48.892;15.312;2023-01-09T05:33:48;1.30;99.90
3648;DHT22;1840;48.892;15.312;2023-01-09T05:36:16;1.20;99.90
3648;DHT22;1840;48.892;15.312;2023-01-09T05:38:44;1.30;99.90
3648;DHT22;1840;48.892;15.312;2023-01-09T05:41:12;1.40;99.90
3648;DHT22;1840;48.892;15.312;2023-01-09T05:43:40;1.50;99.90
3648;DHT22;1840;48.892;15.312;2023-01-09T05:46:08;1.50;99.90
3648;DHT22;1840;48.892;15.312;2023-01-09T05:48:38;1.60;99.90
3648;DHT22;1840;48.892;15.312;2023-01-09T05:51:06;1.60;99.90
3648;DHT22;1840;48.892;15.312;2023-01-09T05:53:34;1.60;99.90
3648;DHT22;1840;48.892;15.312;2023-01-09T05:56:02;1.70;99.90
3648;DHT22;1840;48.892;15.312;2023-01-09T05:58:30;1.70;99.90
3648;DHT22;1840;48.892;15.312;2023-01-09T06:00:58;1.70;99.90
3648;DHT22;1840;48.892;15.312;2023-01-09T06:03:26;1.60;99.90
3648;DHT22;1840;48.892;15.312;2023-01-09T06:05:55;1.50;99.90
3648;DHT22;1840;48.892;15.312;2023-01-09T06:08:23;1.40;99.90
3648;DHT22;1840;48.892;15.312;2023-01-09T06:10:51;1.60;99.90
3648;DHT22;1840;48.892;15.312;2023-01-09T06:13:19;1.50;99.90
3648;DHT22;1840;48.892;15.312;2023-01-09T06:15:47;1.40;99.90
3648;DHT22;1840;48.892;15.312;2023-01-09T06:18:15;1.40;99.90
3648;DHT22;1840;48.892;15.312;2023-01-09T06:20:44;1.40;99.90
3648;DHT22;1840;48.892;15.312;2023-01-09T06:23:13;1.40;99.90
3648;DHT22;1840;48.892;15.312;2023-01-09T06:25:41;1.20;99.90
3648;DHT22;1840;48.892;15.312;2023-01-09T06:28:09;1.20;99.90
3648;DHT22;1840;48.892;15.312;2023-01-09T06:30:37;1.40;99.90
3648;DHT22;1840;48.892;15.312;2023-01-09T06:33:05;1.50;99.90
3648;DHT22;1840;48.892;15.312;2023-01-09T06:35:33;1.50;99.90
3648;DHT22;1840;48.892;15.312;2023-01-09T06:38:01;1.60;99.90
3648;DHT22;1840;48.892;15.312;2023-01-09T06:40:31;1.40;99.90
3648;DHT22;1840;48.892;15.312;2023-01-09T06:42:58;1.40;99.90
3648;DHT22;1840;48.892;15.312;2023-01-09T06:45:26;1.50;99.90
3648;DHT22;1840;48.892;15.312;2023-01-09T06:47:54;1.60;99.90
3648;DHT22;1840;48.892;15.312;2023-01-09T06:50:22;1.60;99.90
3648;DHT22;1840;48.892;15.312;2023-01-09T06:52:50;1.60;99.90
3648;DHT22;1840;48.892;15.312;2023-01-09T06:55:18;1.70;99.90
3648;DHT22;1840;48.892;15.312;2023-01-09T06:57:48;1.80;99.90
3648;DHT22;1840;48.892;15.312;2023-01-09T07:00:17;1.70;99.90
3648;DHT22;1840;48.892;15.312;2023-01-09T07:02:45;1.70;99.90
3648;DHT22;1840;48.892;15.312;2023-01-09T07:05:13;1.70;99.90
3648;DHT22;1840;48.892;15.312;2023-01-09T07:07:41;1.50;99.90
3648;DHT22;1840;48.892;15.312;2023-01-09T07:10:10;1.60;99.90
3648;DHT22;1840;48.892;15.312;2023-01-09T07:12:38;1.50;99.90
3648;DHT22;1840;48.892;15.312;2023-01-09T07:15:08;1.60;99.90
3648;DHT22;1840;48.892;15.312;2023-01-09T07:17:36;1.40;99.90
3648;DHT22;1840;48.892;15.312;2023-01-09T07:20:05;1.30;99.90
3648;DHT22;1840;48.892;15.312;2023-01-09T07:22:33;1.40;99.90
3648;DHT22;1840;48.892;15.312;2023-01-09T07:25:01;1.40;99.90
3648;DHT22;1840;48.892;15.312;2023-01-09T07:27:30;1.30;99.90
3648;DHT22;1840;48.892;15.312;2023-01-09T07:29:57;1.40;99.90
3648;DHT22;1840;48.892;15.312;2023-01-09T07:32:27;1.40;99.90
3648;DHT22;1840;48.892;15.312;2023-01-09T07:34:55;1.30;99.90
3648;DHT22;1840;48.892;15.312;2023-01-09T07:37:23;1.30;99.90
3648;DHT22;1840;48.892;15.312;2023-01-09T07:39:51;1.40;99.90
3648;DHT22;1840;48.892;15.312;2023-01-09T07:42:19;1.40;99.90
3648;DHT22;1840;48.892;15.312;2023-01-09T07:44:47;1.50;99.90
3648;DHT22;1840;48.892;15.312;2023-01-09T07:47:15;1.50;99.90
3648;DHT22;1840;48.892;15.312;2023-01-09T07:49:44;1.60;99.90
3648;DHT22;1840;48.892;15.312;2023-01-09T07:52:12;1.50;99.90
3648;DHT22;1840;48.892;15.312;2023-01-09T07:54:40;1.70;99.90
3648;DHT22;1840;48.892;15.312;2023-01-09T07:57:08;1.70;99.90
3648;DHT22;1840;48.892;15.312;2023-01-09T07:59:36;1.60;99.90
3648;DHT22;1840;48.892;15.312;2023-01-09T08:02:04;1.60;99.90
3648;DHT22;1840;48.892;15.312;2023-01-09T08:04:32;1.50;99.90
3648;DHT22;1840;48.892;15.312;2023-01-09T08:07:02;1.40;99.90
3648;DHT22;1840;48.892;15.312;2023-01-09T08:09:30;1.20;99.90
3648;DHT22;1840;48.892;15.312;2023-01-09T08:11:58;1.30;99.90
3648;DHT22;1840;48.892;15.312;2023-01-09T08:14:25;1.40;99.90
3648;DHT22;1840;48.892;15.312;2023-01-09T08:16:53;1.50;99.90
3648;DHT22;1840;48.892;15.312;2023-01-09T08:19:21;1.40;99.90
3648;DHT22;1840;48.892;15.312;2023-01-09T08:21:49;1.50;99.90
3648;DHT22;1840;48.892;15.312;2023-01-09T08:24:19;1.60;99.90
3648;DHT22;1840;48.892;15.312;2023-01-09T08:26:47;1.40;99.90
3648;DHT22;1840;48.892;15.312;2023-01-09T08:29:17;1.50;99.90
3648;DHT22;1840;48.892;15.312;2023-01-09T08:31:45;1.60;99.90
3648;DHT22;1840;48.892;15.312;2023-01-09T08:34:13;1.80;99.90
3648;DHT22;1840;48.892;15.312;2023-01-09T08:36:41;1.80;99.90
3648;DHT22;1840;48.892;15.312;2023-01-09T08:39:09;1.80;99.90
3648;DHT22;1840;48.892;15.312;2023-01-09T08:41:38;1.80;99.90
3648;DHT22;1840;48.892;15.312;2023-01-09T08:44:24;1.60;99.90
3648;DHT22;1840;48.892;15.312;2023-01-09T08:47:06;1.60;99.90
3648;DHT22;1840;48.892;15.312;2023-01-09T08:49:35;1.70;99.90
3648;DHT22;1840;48.892;15.312;2023-01-09T08:52:04;1.70;99.90
3648;DHT22;1840;48.892;15.312;2023-01-09T08:54:33;1.70;99.90
3648;DHT22;1840;48.892;15.312;2023-01-09T08:57:03;1.80;99.90
3648;DHT22;1840;48.892;15.312;2023-01-09T08:59:31;1.80;99.90
3648;DHT22;1840;48.892;15.312;2023-01-09T09:01:59;1.80;99.90
3648;DHT22;1840;48.892;15.312;2023-01-09T09:04:28;1.70;99.90
3648;DHT22;1840;48.892;15.312;2023-01-09T09:06:56;1.70;99.90
3648;DHT22;1840;48.892;15.312;2023-01-09T09:09:24;1.70;99.90
3648;DHT22;1840;48.892;15.312;2023-01-09T09:11:52;1.60;99.90
3648;DHT22;1840;48.892;15.312;2023-01-09T09:14:22;1.50;99.90
3648;DHT22;1840;48.892;15.312;2023-01-09T09:17:07;1.50;99.90
3648;DHT22;1840;48.892;15.312;2023-01-09T09:19:35;1.30;99.90
3648;DHT22;1840;48.892;15.312;2023-01-09T09:22:05;1.30;99.90
3648;DHT22;1840;48.892;15.312;2023-01-09T09:24:33;1.40;99.90
3648;DHT22;1840;48.892;15.312;2023-01-09T09:27:01;1.50;99.90
3648;DHT22;1840;48.892;15.312;2023-01-09T09:29:31;1.60;99.90
3648;DHT22;1840;48.892;15.312;2023-01-09T09:31:59;1.80;99.90
3648;DHT22;1840;48.892;15.312;2023-01-09T09:34:27;1.90;99.90
3648;DHT22;1840;48.892;15.312;2023-01-09T09:36:55;2.00;99.90
3648;DHT22;1840;48.892;15.312;2023-01-09T09:39:23;2.10;99.90
3648;DHT22;1840;48.892;15.312;2023-01-09T09:42:10;2.10;99.90
3648;DHT22;1840;48.892;15.312;2023-01-09T09:45:07;2.20;99.90
3648;DHT22;1840;48.892;15.312;2023-01-09T09:47:47;2.40;99.90
3648;DHT22;1840;48.892;15.312;2023-01-09T09:50:31;2.30;99.90
3648;DHT22;1840;48.892;15.312;2023-01-09T09:53:07;2.30;99.90
3648;DHT22;1840;48.892;15.312;2023-01-09T09:55:38;2.60;99.90
3648;DHT22;1840;48.892;15.312;2023-01-09T09:58:11;2.70;99.90
3648;DHT22;1840;48.892;15.312;2023-01-09T10:00:42;2.90;99.90
3648;DHT22;1840;48.892;15.312;2023-01-09T10:03:13;3.10;99.90
3648;DHT22;1840;48.892;15.312;2023-01-09T10:05:59;3.20;99.90
3648;DHT22;1840;48.892;15.312;2023-01-09T10:08:35;3.30;99.90
3648;DHT22;1840;48.892;15.312;2023-01-09T10:11:08;3.30;99.90
3648;DHT22;1840;48.892;15.312;2023-01-09T10:13:38;3.30;99.90
3648;DHT22;1840;48.892;15.312;2023-01-09T10:16:34;3.60;99.90
3648;DHT22;1840;48.892;15.312;2023-01-09T10:19:14;3.80;99.90
3648;DHT22;1840;48.892;15.312;2023-01-09T10:21:51;3.70;99.90
3648;DHT22;1840;48.892;15.312;2023-01-09T10:24:36;3.80;99.90
3648;DHT22;1840;48.892;15.312;2023-01-09T10:27:23;4.00;99.90
3648;DHT22;1840;48.892;15.312;2023-01-09T10:30:02;4.20;99.90
3648;DHT22;1840;48.892;15.312;2023-01-09T10:32:44;4.30;99.90
3648;DHT22;1840;48.892;15.312;2023-01-09T10:35:32;4.20;99.90
3648;DHT22;1840;48.892;15.312;2023-01-09T10:38:16;4.20;99.90
3648;DHT22;1840;48.892;15.312;2023-01-09T10:40:47;4.30;99.90
3648;DHT22;1840;48.892;15.312;2023-01-09T10:43:26;4.40;99.90
3648;DHT22;1840;48.892;15.312;2023-01-09T10:45:58;4.40;99.90
3648;DHT22;1840;48.892;15.312;2023-01-09T10:48:32;4.10;99.90
3648;DHT22;1840;48.892;15.312;2023-01-09T10:51:04;4.10;99.90
3648;DHT22;1840;48.892;15.312;2023-01-09T10:53:43;4.20;99.90
3648;DHT22;1840;48.892;15.312;2023-01-09T10:56:14;4.20;99.90
3648;DHT22;1840;48.892;15.312;2023-01-09T10:58:46;4.40;99.90
3648;DHT22;1840;48.892;15.312;2023-01-09T11:01:16;4.40;99.90
3648;DHT22;1840;48.892;15.312;2023-01-09T11:03:47;4.40;99.90
3648;DHT22;1840;48.892;15.312;2023-01-09T11:06:19;4.30;99.90
3648;DHT22;1840;48.892;15.312;2023-01-09T11:08:50;4.30;99.90
3648;DHT22;1840;48.892;15.312;2023-01-09T11:11:32;4.30;99.90
3648;DHT22;1840;48.892;15.312;2023-01-09T11:14:05;4.50;99.90
3648;DHT22;1840;48.892;15.312;2023-01-09T11:16:34;4.40;99.90
3648;DHT22;1840;48.892;15.312;2023-01-09T11:19:03;4.30;99.90
3648;DHT22;1840;48.892;15.312;2023-01-09T11:21:33;4.30;99.90
3648;DHT22;1840;48.892;15.312;2023-01-09T11:24:25;4.40;99.90
3648;DHT22;1840;48.892;15.312;2023-01-09T11:27:19;4.30;99.90
3648;DHT22;1840;48.892;15.312;2023-01-09T11:30:21;4.50;99.90
3648;DHT22;1840;48.892;15.312;2023-01-09T11:32:53;4.60;99.90
3648;DHT22;1840;48.892;15.312;2023-01-09T11:35:26;4.50;99.90
3648;DHT22;1840;48.892;15.312;2023-01-09T11:38:03;4.40;99.90
3648;DHT22;1840;48.892;15.312;2023-01-09T11:40:37;4.30;99.90
3648;DHT22;1840;48.892;15.312;2023-01-09T11:43:19;4.10;99.90
3648;DHT22;1840;48.892;15.312;2023-01-09T11:45:49;3.90;99.90
3648;DHT22;1840;48.892;15.312;2023-01-09T11:48:30;4.00;99.90
3648;DHT22;1840;48.892;15.312;2023-01-09T11:51:01;4.00;99.90
3648;DHT22;1840;48.892;15.312;2023-01-09T11:53:42;4.20;99.90
3648;DHT22;1840;48.892;15.312;2023-01-09T11:56:13;4.20;99.90
3648;DHT22;1840;48.892;15.312;2023-01-09T11:58:42;4.50;99.90
3648;DHT22;1840;48.892;15.312;2023-01-09T12:01:29;4.60;99.90
3648;DHT22;1840;48.892;15.312;2023-01-09T12:04:16;4.50;99.90
3648;DHT22;1840;48.892;15.312;2023-01-09T12:06:57;4.00;99.90
3648;DHT22;1840;48.892;15.312;2023-01-09T12:09:35;4.00;99.90
3648;DHT22;1840;48.892;15.312;2023-01-09T12:12:14;4.10;99.90
3648;DHT22;1840;48.892;15.312;2023-01-09T12:14:53;4.00;99.90
3648;DHT22;1840;48.892;15.312;2023-01-09T12:17:41;4.00;99.90
3648;DHT22;1840;48.892;15.312;2023-01-09T12:20:31;4.00;99.90
3648;DHT22;1840;48.892;15.312;2023-01-09T12:23:16;3.90;99.90
3648;DHT22;1840;48.892;15.312;2023-01-09T12:25:52;4.10;99.90
3648;DHT22;1840;48.892;15.312;2023-01-09T12:28:42;4.30;99.90
3648;DHT22;1840;48.892;15.312;2023-01-09T12:31:29;4.40;99.90
3648;DHT22;1840;48.892;15.312;2023-01-09T12:34:11;4.40;99.90
3648;DHT22;1840;48.892;15.312;2023-01-09T12:36:49;4.30;99.90
3648;DHT22;1840;48.892;15.312;2023-01-09T12:39:29;4.40;99.90
3648;DHT22;1840;48.892;15.312;2023-01-09T12:42:22;4.40;99.90
3648;DHT22;1840;48.892;15.312;2023-01-09T12:49:27;4.40;99.90
3648;DHT22;1840;48.892;15.312;2023-01-09T12:52:02;4.20;99.90
3648;DHT22;1840;48.892;15.312;2023-01-09T12:54:38;4.20;99.90
3648;DHT22;1840;48.892;15.312;2023-01-09T12:57:13;4.10;99.90
3648;DHT22;1840;48.892;15.312;2023-01-09T12:59:43;4.10;99.90
3648;DHT22;1840;48.892;15.312;2023-01-09T13:02:21;3.80;99.90
3648;DHT22;1840;48.892;15.312;2023-01-09T13:04:54;3.90;99.90
3648;DHT22;1840;48.892;15.312;2023-01-09T13:07:25;4.30;99.90
3648;DHT22;1840;48.892;15.312;2023-01-09T13:10:00;4.60;99.90
3648;DHT22;1840;48.892;15.312;2023-01-09T13:12:34;4.60;99.90
3648;DHT22;1840;48.892;15.312;2023-01-09T13:15:14;4.70;99.90
3648;DHT22;1840;48.892;15.312;2023-01-09T13:17:48;4.70;99.90
3648;DHT22;1840;48.892;15.312;2023-01-09T13:20:20;4.70;99.90
3648;DHT22;1840;48.892;15.312;2023-01-09T13:22:49;5.00;99.90
3648;DHT22;1840;48.892;15.312;2023-01-09T13:25:31;5.00;99.90
3648;DHT22;1840;48.892;15.312;2023-01-09T13:28:04;5.00;99.90
3648;DHT22;1840;48.892;15.312;2023-01-09T13:30:56;5.10;99.60
3648;DHT22;1840;48.892;15.312;2023-01-09T13:33:28;5.00;99.70
3648;DHT22;1840;48.892;15.312;2023-01-09T13:35:57;4.80;99.90
3648;DHT22;1840;48.892;15.312;2023-01-09T13:38:29;4.90;99.90
3648;DHT22;1840;48.892;15.312;2023-01-09T13:41:09;4.50;99.90
3648;DHT22;1840;48.892;15.312;2023-01-09T13:43:57;4.80;99.80
3648;DHT22;1840;48.892;15.312;2023-01-09T13:46:37;4.50;99.90
3648;DHT22;1840;48.892;15.312;2023-01-09T13:49:26;4.80;99.70
3648;DHT22;1840;48.892;15.312;2023-01-09T13:51:58;4.70;99.50
3648;DHT22;1840;48.892;15.312;2023-01-09T13:58:18;4.50;99.80
3648;DHT22;1840;48.892;15.312;2023-01-09T14:00:57;4.50;99.00
3648;DHT22;1840;48.892;15.312;2023-01-09T14:03:34;4.60;99.30
3648;DHT22;1840;48.892;15.312;2023-01-09T14:06:17;4.60;99.30
3648;DHT22;1840;48.892;15.312;2023-01-09T14:08:47;4.50;98.70
3648;DHT22;1840;48.892;15.312;2023-01-09T14:11:19;4.50;98.80
3648;DHT22;1840;48.892;15.312;2023-01-09T14:14:02;4.30;99.20
3648;DHT22;1840;48.892;15.312;2023-01-09T14:16:31;4.20;99.40
3648;DHT22;1840;48.892;15.312;2023-01-09T14:19:03;4.20;99.20
3648;DHT22;1840;48.892;15.312;2023-01-09T14:21:43;4.30;99.10
3648;DHT22;1840;48.892;15.312;2023-01-09T14:24:20;4.30;99.00
3648;DHT22;1840;48.892;15.312;2023-01-09T14:26:50;4.30;98.70
3648;DHT22;1840;48.892;15.312;2023-01-09T14:29:44;4.20;98.50
3648;DHT22;1840;48.892;15.312;2023-01-09T14:32:44;4.30;98.60
3648;DHT22;1840;48.892;15.312;2023-01-09T14:35:16;4.40;98.40
3648;DHT22;1840;48.892;15.312;2023-01-09T14:38:00;4.30;98.30
3648;DHT22;1840;48.892;15.312;2023-01-09T14:40:29;4.40;98.10
3648;DHT22;1840;48.892;15.312;2023-01-09T14:43:03;4.40;98.30
3648;DHT22;1840;48.892;15.312;2023-01-09T14:45:36;4.40;98.30
3648;DHT22;1840;48.892;15.312;2023-01-09T14:48:10;4.50;98.30
3648;DHT22;1840;48.892;15.312;2023-01-09T14:50:41;4.40;98.20
3648;DHT22;1840;48.892;15.312;2023-01-09T14:53:15;4.40;98.30
3648;DHT22;1840;48.892;15.312;2023-01-09T14:55:49;4.20;98.20
3648;DHT22;1840;48.892;15.312;2023-01-09T14:58:20;4.40;98.30
3648;DHT22;1840;48.892;15.312;2023-01-09T15:00:56;4.20;98.30
3648;DHT22;1840;48.892;15.312;2023-01-09T15:03:28;4.10;98.30
3648;DHT22;1840;48.892;15.312;2023-01-09T15:05:59;4.10;98.60
3648;DHT22;1840;48.892;15.312;2023-01-09T15:08:27;4.00;98.50
3648;DHT22;1840;48.892;15.312;2023-01-09T15:10:57;3.90;98.40
3648;DHT22;1840;48.892;15.312;2023-01-09T15:13:34;4.00;98.50
3648;DHT22;1840;48.892;15.312;2023-01-09T15:16:06;4.00;98.60
3648;DHT22;1840;48.892;15.312;2023-01-09T15:18:41;4.00;98.70
3648;DHT22;1840;48.892;15.312;2023-01-09T15:21:18;3.80;98.50
3648;DHT22;1840;48.892;15.312;2023-01-09T15:23:46;3.90;98.90
3648;DHT22;1840;48.892;15.312;2023-01-09T15:26:24;4.10;98.50
3648;DHT22;1840;48.892;15.312;2023-01-09T15:28:59;4.10;98.40
3648;DHT22;1840;48.892;15.312;2023-01-09T15:31:29;4.00;98.60
3648;DHT22;1840;48.892;15.312;2023-01-09T15:33:57;4.10;98.70
3648;DHT22;1840;48.892;15.312;2023-01-09T15:36:26;3.90;98.80
3648;DHT22;1840;48.892;15.312;2023-01-09T15:38:57;3.80;98.70
3648;DHT22;1840;48.892;15.312;2023-01-09T15:41:27;3.70;99.10
3648;DHT22;1840;48.892;15.312;2023-01-09T15:44:17;3.60;99.00
3648;DHT22;1840;48.892;15.312;2023-01-09T15:46:48;3.50;99.00
3648;DHT22;1840;48.892;15.312;2023-01-09T15:49:18;3.50;99.10
3648;DHT22;1840;48.892;15.312;2023-01-09T15:51:47;3.60;99.10
3648;DHT22;1840;48.892;15.312;2023-01-09T15:54:17;3.50;99.00
3648;DHT22;1840;48.892;15.312;2023-01-09T15:56:46;3.60;98.70
3648;DHT22;1840;48.892;15.312;2023-01-09T15:59:22;3.50;98.70
3648;DHT22;1840;48.892;15.312;2023-01-09T16:01:58;3.50;98.80
3648;DHT22;1840;48.892;15.312;2023-01-09T16:04:41;3.50;98.90
3648;DHT22;1840;48.892;15.312;2023-01-09T16:07:12;3.70;98.60
3648;DHT22;1840;48.892;15.312;2023-01-09T16:09:43;3.60;98.60
3648;DHT22;1840;48.892;15.312;2023-01-09T16:12:18;3.40;98.80
3648;DHT22;1840;48.892;15.312;2023-01-09T16:14:50;3.40;98.90
3648;DHT22;1840;48.892;15.312;2023-01-09T16:17:20;3.50;98.70
3648;DHT22;1840;48.892;15.312;2023-01-09T16:19:53;3.50;98.80
3648;DHT22;1840;48.892;15.312;2023-01-09T16:22:24;3.60;98.70
3648;DHT22;1840;48.892;15.312;2023-01-09T16:24:54;3.60;98.60
3648;DHT22;1840;48.892;15.312;2023-01-09T16:27:25;3.60;98.50
3648;DHT22;1840;48.892;15.312;2023-01-09T16:29:55;3.70;98.50
3648;DHT22;1840;48.892;15.312;2023-01-09T16:32:27;3.70;98.60
3648;DHT22;1840;48.892;15.312;2023-01-09T16:34:59;3.80;98.50
3648;DHT22;1840;48.892;15.312;2023-01-09T16:37:31;3.70;98.40
3648;DHT22;1840;48.892;15.312;2023-01-09T16:40:21;3.70;98.50
3648;DHT22;1840;48.892;15.312;2023-01-09T16:42:52;3.70;98.50
3648;DHT22;1840;48.892;15.312;2023-01-09T16:45:27;3.80;98.40
3648;DHT22;1840;48.892;15.312;2023-01-09T16:47:57;3.80;98.30